createdAt,value
2018-12-26T00:00:39.082Z,85.05
2018-12-26T00:01:39.161Z,84.74
2018-12-26T00:02:39.067Z,84.74
2018-12-26T00:03:39.054Z,84.84
2018-12-26T00:04:39.056Z,84.78
2018-12-26T00:05:39.136Z,84.68
2018-12-26T00:06:39.022Z,84.99
2018-12-26T00:07:39.010Z,84.74
2018-12-26T00:08:38.997Z,85.10
2018-12-26T00:09:39.002Z,85.41
2018-12-26T00:10:38.976Z,85.20
2018-12-26T00:11:38.965Z,85.20
2018-12-26T00:12:38.970Z,84.99
2018-12-26T00:13:38.948Z,84.78
2018-12-26T00:14:38.934Z,85.20
2018-12-26T00:15:38.943Z,85.51
2018-12-26T00:16:38.913Z,85.51
2018-12-26T00:17:38.901Z,85.51
2018-12-26T00:18:38.957Z,86.34
2018-12-26T00:19:38.931Z,86.03
2018-12-26T00:20:38.906Z,85.20
2018-12-26T00:21:38.860Z,85.24
2018-12-26T00:22:38.845Z,86.13
2018-12-26T00:23:38.834Z,85.20
2018-12-26T00:24:38.826Z,85.34
2018-12-26T00:25:38.818Z,85.55
2018-12-26T00:26:38.839Z,85.65
2018-12-26T00:27:38.794Z,86.27
2018-12-26T00:28:38.783Z,86.38
2018-12-26T00:29:38.774Z,86.27
2018-12-26T00:30:38.762Z,86.27
2018-12-26T00:31:38.749Z,85.96
2018-12-26T00:32:38.753Z,85.96
2018-12-26T00:33:38.726Z,85.44
2018-12-26T00:34:38.719Z,85.13
2018-12-26T00:35:38.707Z,84.82
2018-12-26T00:36:38.711Z,84.61
2018-12-26T00:37:38.707Z,85.38
2018-12-26T00:38:38.675Z,85.17
2018-12-26T00:39:38.665Z,85.13
2018-12-26T00:40:38.652Z,84.61
2018-12-26T00:41:38.644Z,84.72
2018-12-26T00:42:38.653Z,84.86
2018-12-26T00:43:38.625Z,84.41
2018-12-26T00:44:38.610Z,84.20
2018-12-26T00:45:38.599Z,84.65
2018-12-26T00:46:38.589Z,85.06
2018-12-26T00:47:38.581Z,84.61
2018-12-26T00:48:38.582Z,84.65
2018-12-26T00:49:38.555Z,85.06
2018-12-26T00:50:38.546Z,84.82
2018-12-26T00:51:38.538Z,84.96
2018-12-26T00:52:38.532Z,85.69
2018-12-26T00:53:38.529Z,85.06
2018-12-26T00:54:38.504Z,85.06
2018-12-26T00:55:38.491Z,84.65
2018-12-26T00:56:38.482Z,85.28
2018-12-26T00:57:38.469Z,84.55
2018-12-26T00:58:38.474Z,84.96
2018-12-26T00:59:38.447Z,84.75
2018-12-26T01:00:38.440Z,84.65
2018-12-26T01:01:38.428Z,84.75
2018-12-26T01:02:38.417Z,84.86
2018-12-26T01:03:38.421Z,84.96
2018-12-26T01:04:38.394Z,84.96
2018-12-26T01:05:38.400Z,85.28
2018-12-26T01:06:38.373Z,85.06
2018-12-26T01:07:38.363Z,84.44
2018-12-26T01:08:38.351Z,84.65
2018-12-26T01:09:38.341Z,85.17
2018-12-26T01:10:38.351Z,84.75
2018-12-26T01:11:38.320Z,85.38
2018-12-26T01:12:38.313Z,84.55
2018-12-26T01:13:38.300Z,85.38
2018-12-26T01:14:38.287Z,84.86
2018-12-26T01:15:38.277Z,84.86
2018-12-26T01:16:38.279Z,84.44
2018-12-26T01:17:38.255Z,84.13
2018-12-26T01:18:38.248Z,84.38
2018-12-26T01:19:38.233Z,85.00
2018-12-26T01:20:38.222Z,84.75
2018-12-26T01:21:38.248Z,85.21
2018-12-26T01:22:38.204Z,84.80
2018-12-26T01:23:38.189Z,84.55
2018-12-26T01:24:38.182Z,84.59
2018-12-26T01:25:38.168Z,84.59
2018-12-26T01:26:38.162Z,84.59
2018-12-26T01:27:38.165Z,84.69
2018-12-26T01:28:38.138Z,84.69
2018-12-26T01:29:38.138Z,84.69
2018-12-26T01:30:38.121Z,85.11
2018-12-26T01:31:38.108Z,85.31
2018-12-26T01:32:38.116Z,84.90
2018-12-26T01:33:38.084Z,84.17
2018-12-26T01:34:38.077Z,84.48
2018-12-26T01:35:38.063Z,84.90
2018-12-26T01:36:38.057Z,84.80
2018-12-26T01:37:38.043Z,84.80
2018-12-26T01:38:38.075Z,84.73
2018-12-26T01:39:38.023Z,85.35
2018-12-26T01:40:38.010Z,85.04
2018-12-26T01:41:37.997Z,85.04
2018-12-26T01:42:37.991Z,84.90
2018-12-26T01:43:37.979Z,84.83
2018-12-26T01:44:37.981Z,85.14
2018-12-26T01:45:37.972Z,85.25
2018-12-26T01:46:37.958Z,85.11
2018-12-26T01:47:37.937Z,85.35
2018-12-26T01:48:37.928Z,85.14
2018-12-26T01:49:37.914Z,84.94
2018-12-26T01:50:37.902Z,84.94
2018-12-26T01:51:37.907Z,85.04
2018-12-26T01:52:37.880Z,85.04
2018-12-26T01:53:37.884Z,85.04
2018-12-26T01:54:37.860Z,85.67
2018-12-26T01:55:37.848Z,85.46
2018-12-26T01:56:37.840Z,85.67
2018-12-26T01:57:37.841Z,85.25
2018-12-26T01:58:37.823Z,85.46
2018-12-26T01:59:37.809Z,85.35
2018-12-26T02:00:37.799Z,85.35
2018-12-26T02:01:37.784Z,84.94
2018-12-26T02:02:37.787Z,85.14
2018-12-26T02:03:37.765Z,85.04
2018-12-26T02:04:37.763Z,85.04
2018-12-26T02:05:37.743Z,85.46
2018-12-26T02:06:37.733Z,85.56
2018-12-26T02:07:37.726Z,85.14
2018-12-26T02:08:37.740Z,85.25
2018-12-26T02:09:37.699Z,85.35
2018-12-26T02:10:37.694Z,85.25
2018-12-26T02:11:37.678Z,85.14
2018-12-26T02:12:37.668Z,85.35
2018-12-26T02:13:37.666Z,85.14
2018-12-26T02:14:37.671Z,85.35
2018-12-26T02:15:37.639Z,85.46
2018-12-26T02:16:37.624Z,85.25
2018-12-26T02:17:37.616Z,84.94
2018-12-26T02:18:37.723Z,85.46
2018-12-26T02:19:37.591Z,85.46
2018-12-26T02:20:37.598Z,85.56
2018-12-26T02:21:37.571Z,85.04
2018-12-26T02:22:37.560Z,85.67
2018-12-26T02:23:37.565Z,85.46
2018-12-26T02:24:37.540Z,85.35
2018-12-26T02:25:37.545Z,85.35
2018-12-26T02:26:37.517Z,85.46
2018-12-26T02:27:37.511Z,85.56
2018-12-26T02:28:37.498Z,85.14
2018-12-26T02:29:37.484Z,85.14
2018-12-26T02:30:37.501Z,85.14
2018-12-26T02:31:37.506Z,85.56
2018-12-26T02:32:37.455Z,85.56
2018-12-26T02:33:37.448Z,85.46
2018-12-26T02:34:37.435Z,86.29
2018-12-26T02:35:37.421Z,86.19
2018-12-26T02:36:37.426Z,86.22
2018-12-26T02:37:37.408Z,86.29
2018-12-26T02:38:37.391Z,85.67
2018-12-26T02:39:37.384Z,86.50
2018-12-26T02:40:37.382Z,86.40
2018-12-26T02:41:37.360Z,86.40
2018-12-26T02:42:37.352Z,85.56
2018-12-26T02:43:37.338Z,86.43
2018-12-26T02:44:37.325Z,85.88
2018-12-26T02:45:37.331Z,86.19
2018-12-26T02:46:37.304Z,86.50
2018-12-26T02:47:37.326Z,86.29
2018-12-26T02:48:37.287Z,86.29
2018-12-26T02:49:37.274Z,86.08
2018-12-26T02:50:37.265Z,86.29
2018-12-26T02:51:37.249Z,86.08
2018-12-26T02:52:37.242Z,86.33
2018-12-26T02:53:37.287Z,86.50
2018-12-26T02:54:37.219Z,86.12
2018-12-26T02:55:37.211Z,86.33
2018-12-26T02:56:46.134Z,85.98
2018-12-26T02:57:38.187Z,86.33
2018-12-26T02:58:37.177Z,86.43
2018-12-26T02:59:37.214Z,86.19
2018-12-26T03:00:37.156Z,86.22
2018-12-26T03:01:37.144Z,86.02
2018-12-26T03:02:37.136Z,86.54
2018-12-26T03:03:37.133Z,86.02
2018-12-26T03:04:37.119Z,86.33
2018-12-26T03:05:37.119Z,86.65
2018-12-26T03:06:37.102Z,86.54
2018-12-26T03:07:37.097Z,86.33
2018-12-26T03:08:37.083Z,86.43
2018-12-26T03:09:37.058Z,86.75
2018-12-26T03:10:37.071Z,87.16
2018-12-26T03:11:37.037Z,87.16
2018-12-26T03:12:37.030Z,87.48
2018-12-26T03:13:37.019Z,87.37
2018-12-26T03:14:37.042Z,87.16
2018-12-26T03:15:36.997Z,87.68
2018-12-26T03:16:36.995Z,87.27
2018-12-26T03:17:36.979Z,87.58
2018-12-26T03:18:36.964Z,87.89
2018-12-26T03:19:36.956Z,87.27
2018-12-26T03:20:36.958Z,87.37
2018-12-26T03:21:36.930Z,87.06
2018-12-26T03:22:36.922Z,87.48
2018-12-26T03:23:36.912Z,87.89
2018-12-26T03:24:36.916Z,87.58
2018-12-26T03:25:36.918Z,87.48
2018-12-26T03:26:36.879Z,87.68
2018-12-26T03:27:36.872Z,87.79
2018-12-26T03:28:36.856Z,87.12
2018-12-26T03:29:36.876Z,87.37
2018-12-26T03:30:36.837Z,87.68
2018-12-26T03:31:36.827Z,87.48
2018-12-26T03:32:36.820Z,87.48
2018-12-26T03:33:36.802Z,87.48
2018-12-26T03:34:36.801Z,87.65
2018-12-26T03:35:36.793Z,87.65
2018-12-26T03:36:36.788Z,88.10
2018-12-26T03:37:36.764Z,87.99
2018-12-26T03:38:36.748Z,87.79
2018-12-26T03:39:36.740Z,87.79
2018-12-26T03:40:36.735Z,87.27
2018-12-26T03:41:36.735Z,87.27
2018-12-26T03:42:36.732Z,87.37
2018-12-26T03:43:36.700Z,87.75
2018-12-26T03:44:36.703Z,87.37
2018-12-26T03:45:36.676Z,87.89
2018-12-26T03:46:36.683Z,87.27
2018-12-26T03:47:36.655Z,87.16
2018-12-26T03:48:36.661Z,87.89
2018-12-26T03:49:36.632Z,88.10
2018-12-26T03:50:36.621Z,87.79
2018-12-26T03:51:36.613Z,88.10
2018-12-26T03:52:36.621Z,87.99
2018-12-26T03:53:36.614Z,87.68
2018-12-26T03:54:36.582Z,87.79
2018-12-26T03:55:36.572Z,87.89
2018-12-26T03:56:36.559Z,88.42
2018-12-26T03:57:36.564Z,88.42
2018-12-26T03:58:36.549Z,88.10
2018-12-26T03:59:36.526Z,88.10
2018-12-26T04:00:36.534Z,88.31
2018-12-26T04:01:36.507Z,88.42
2018-12-26T04:02:36.495Z,88.31
2018-12-26T04:03:36.494Z,88.42
2018-12-26T04:04:36.472Z,88.10
2018-12-26T04:05:36.477Z,87.89
2018-12-26T04:06:36.459Z,88.62
2018-12-26T04:07:36.443Z,87.79
2018-12-26T04:08:36.430Z,88.10
2018-12-26T04:09:36.419Z,88.31
2018-12-26T04:10:36.428Z,87.75
2018-12-26T04:11:36.399Z,88.31
2018-12-26T04:12:36.404Z,87.79
2018-12-26T04:13:36.375Z,88.42
2018-12-26T04:14:36.369Z,88.52
2018-12-26T04:15:36.369Z,87.89
2018-12-26T04:16:36.361Z,88.42
2018-12-26T04:17:36.363Z,88.42
2018-12-26T04:18:36.327Z,88.31
2018-12-26T04:19:36.312Z,87.89
2018-12-26T04:20:36.301Z,88.52
2018-12-26T04:21:36.294Z,88.10
2018-12-26T04:22:36.281Z,88.42
2018-12-26T04:23:36.285Z,88.62
2018-12-26T04:24:36.261Z,88.31
2018-12-26T04:25:36.249Z,87.65
2018-12-26T04:26:36.240Z,88.10
2018-12-26T04:27:36.240Z,87.79
2018-12-26T04:28:36.219Z,88.42
2018-12-26T04:29:36.205Z,88.42
2018-12-26T04:30:36.193Z,88.83
2018-12-26T04:31:36.186Z,88.62
2018-12-26T04:32:36.193Z,88.73
2018-12-26T04:33:36.181Z,89.20
2018-12-26T04:34:36.156Z,88.42
2018-12-26T04:35:36.142Z,88.48
2018-12-26T04:36:36.130Z,88.31
2018-12-26T04:37:36.158Z,88.37
2018-12-26T04:38:36.111Z,88.31
2018-12-26T04:39:36.103Z,88.42
2018-12-26T04:40:36.089Z,88.62
2018-12-26T04:41:36.081Z,89.20
2018-12-26T04:42:36.069Z,88.58
2018-12-26T04:43:36.084Z,88.06
2018-12-26T04:44:36.047Z,88.52
2018-12-26T04:45:36.040Z,88.58
2018-12-26T04:46:36.025Z,89.20
2018-12-26T04:47:36.015Z,88.89
2018-12-26T04:48:36.087Z,88.68
2018-12-26T04:49:36.009Z,88.06
2018-12-26T04:50:35.983Z,88.10
2018-12-26T04:51:35.971Z,88.37
2018-12-26T04:52:35.964Z,88.52
2018-12-26T04:53:35.949Z,88.58
2018-12-26T04:54:35.938Z,88.58
2018-12-26T04:55:35.948Z,88.31
2018-12-26T04:56:35.915Z,89.20
2018-12-26T04:57:35.918Z,88.48
2018-12-26T04:58:35.895Z,88.27
2018-12-26T04:59:35.889Z,88.06
2018-12-26T05:00:35.892Z,88.52
2018-12-26T05:01:35.866Z,88.31
2018-12-26T05:02:35.853Z,88.48
2018-12-26T05:03:35.862Z,88.48
2018-12-26T05:04:35.834Z,89.00
2018-12-26T05:05:35.820Z,88.68
2018-12-26T05:06:35.810Z,89.10
2018-12-26T05:07:35.807Z,88.27
2018-12-26T05:08:35.789Z,88.27
2018-12-26T05:09:35.819Z,88.27
2018-12-26T05:10:35.771Z,88.37
2018-12-26T05:11:35.756Z,88.42
2018-12-26T05:12:35.748Z,88.27
2018-12-26T05:13:35.739Z,88.37
2018-12-26T05:14:35.729Z,88.37
2018-12-26T05:15:35.731Z,88.27
2018-12-26T05:16:35.705Z,88.52
2018-12-26T05:17:35.704Z,88.52
2018-12-26T05:18:35.686Z,88.52
2018-12-26T05:19:35.675Z,88.42
2018-12-26T05:20:35.661Z,88.31
2018-12-26T05:21:35.653Z,87.99
2018-12-26T05:22:35.672Z,88.42
2018-12-26T05:23:35.628Z,89.31
2018-12-26T05:24:35.719Z,89.25
2018-12-26T05:25:35.609Z,88.73
2018-12-26T05:26:35.600Z,88.83
2018-12-26T05:27:35.588Z,89.56
2018-12-26T05:28:35.597Z,89.45
2018-12-26T05:29:35.568Z,89.14
2018-12-26T05:30:35.558Z,89.20
2018-12-26T05:31:35.543Z,89.76
2018-12-26T05:32:35.536Z,90.08
2018-12-26T05:33:35.537Z,89.66
2018-12-26T05:34:35.590Z,89.98
2018-12-26T05:35:35.499Z,90.39
2018-12-26T05:36:35.490Z,90.29
2018-12-26T05:37:35.483Z,90.50
2018-12-26T05:38:35.484Z,90.50
2018-12-26T05:39:35.457Z,90.70
2018-12-26T05:40:35.458Z,90.39
2018-12-26T05:41:35.436Z,90.60
2018-12-26T05:42:35.429Z,90.50
2018-12-26T05:43:35.416Z,91.02
2018-12-26T05:44:35.422Z,90.70
2018-12-26T05:45:35.396Z,91.33
2018-12-26T05:46:35.388Z,91.33
2018-12-26T05:47:35.374Z,91.43
2018-12-26T05:48:35.363Z,91.58
2018-12-26T05:49:35.371Z,91.47
2018-12-26T05:50:35.339Z,91.85
2018-12-26T05:51:35.331Z,92.21
2018-12-26T05:52:35.317Z,92.72
2018-12-26T05:53:35.310Z,93.24
2018-12-26T05:54:35.314Z,93.14
2018-12-26T05:55:36.495Z,93.14
2018-12-26T05:56:35.277Z,93.35
2018-12-26T05:57:42.567Z,94.39
2018-12-26T05:58:36.254Z,93.87
2018-12-26T05:59:35.243Z,94.18
2018-12-26T06:00:35.233Z,94.18
2018-12-26T06:01:35.238Z,94.60
2018-12-26T06:02:35.227Z,94.60
2018-12-26T06:03:35.203Z,94.92
2018-12-26T06:04:35.191Z,95.43
2018-12-26T06:05:35.184Z,94.60
2018-12-26T06:06:35.204Z,95.33
2018-12-26T06:07:35.160Z,95.64
2018-12-26T06:08:35.147Z,95.68
2018-12-26T06:09:35.140Z,95.79
2018-12-26T06:10:35.130Z,95.79
2018-12-26T06:11:35.119Z,95.58
2018-12-26T06:12:35.119Z,95.48
2018-12-26T06:13:35.099Z,95.48
2018-12-26T06:14:35.086Z,96.11
2018-12-26T06:15:35.074Z,95.79
2018-12-26T06:16:35.066Z,96.21
2018-12-26T06:17:35.071Z,96.00
2018-12-26T06:18:35.061Z,95.79
2018-12-26T06:19:35.030Z,96.21
2018-12-26T06:20:35.021Z,96.31
2018-12-26T06:21:35.012Z,96.31
2018-12-26T06:22:35.116Z,96.83
2018-12-26T06:23:35.011Z,97.14
2018-12-26T06:24:34.996Z,97.04
2018-12-26T06:25:34.972Z,96.73
2018-12-26T06:26:34.959Z,96.94
2018-12-26T06:27:34.947Z,96.83
2018-12-26T06:28:34.936Z,97.46
2018-12-26T06:29:34.939Z,97.14
2018-12-26T06:30:34.929Z,97.04
2018-12-26T06:31:34.904Z,97.14
2018-12-26T06:32:34.911Z,97.04
2018-12-26T06:33:34.884Z,97.25
2018-12-26T06:34:34.876Z,97.35
2018-12-26T06:35:34.860Z,97.40
2018-12-26T06:36:34.851Z,97.25
2018-12-26T06:37:34.855Z,97.25
2018-12-26T06:38:34.831Z,97.14
2018-12-26T06:39:34.832Z,97.25
2018-12-26T06:40:34.809Z,97.56
2018-12-26T06:41:34.794Z,97.35
2018-12-26T06:42:34.795Z,97.46
2018-12-26T06:43:34.776Z,97.61
2018-12-26T06:44:34.783Z,97.77
2018-12-26T06:45:34.753Z,97.67
2018-12-26T06:46:34.744Z,98.08
2018-12-26T06:47:34.734Z,97.98
2018-12-26T06:48:34.721Z,97.88
2018-12-26T06:49:34.733Z,98.08
2018-12-26T06:50:34.701Z,97.98
2018-12-26T06:51:34.691Z,97.67
2018-12-26T06:52:34.702Z,97.77
2018-12-26T06:53:34.667Z,97.92
2018-12-26T06:54:34.658Z,97.67
2018-12-26T06:55:34.648Z,98.50
2018-12-26T06:56:34.636Z,98.08
2018-12-26T06:57:34.627Z,97.98
2018-12-26T06:58:34.632Z,98.39
2018-12-26T06:59:34.606Z,98.39
2018-12-26T07:00:34.613Z,98.39
2018-12-26T07:01:34.581Z,98.71
2018-12-26T07:02:34.571Z,98.08
2018-12-26T07:03:34.579Z,98.29
2018-12-26T07:04:34.551Z,98.08
2018-12-26T07:05:34.541Z,97.77
2018-12-26T07:06:34.530Z,98.13
2018-12-26T07:07:34.517Z,97.98
2018-12-26T07:08:34.525Z,97.77
2018-12-26T07:09:34.497Z,98.39
2018-12-26T07:10:34.504Z,98.29
2018-12-26T07:11:34.488Z,98.39
2018-12-26T07:12:34.465Z,98.29
2018-12-26T07:13:34.477Z,98.39
2018-12-26T07:14:34.444Z,98.39
2018-12-26T07:15:34.436Z,98.19
2018-12-26T07:16:34.427Z,98.92
2018-12-26T07:17:34.411Z,98.34
2018-12-26T07:18:34.402Z,98.60
2018-12-26T07:19:34.406Z,98.60
2018-12-26T07:20:34.382Z,98.60
2018-12-26T07:21:34.372Z,98.60
2018-12-26T07:22:34.376Z,98.44
2018-12-26T07:23:34.350Z,98.60
2018-12-26T07:24:34.354Z,98.71
2018-12-26T07:25:34.326Z,98.50
2018-12-26T07:26:34.318Z,98.71
2018-12-26T07:27:34.305Z,98.60
2018-12-26T07:28:34.314Z,98.96
2018-12-26T07:29:34.286Z,98.71
2018-12-26T07:30:34.275Z,98.55
2018-12-26T07:31:34.262Z,98.50
2018-12-26T07:32:34.256Z,98.75
2018-12-26T07:33:34.254Z,98.50
2018-12-26T07:34:41.982Z,98.60
2018-12-26T07:35:35.222Z,98.60
2018-12-26T07:36:34.229Z,98.71
2018-12-26T07:37:34.198Z,98.65
2018-12-26T07:38:34.189Z,98.60
2018-12-26T07:39:34.179Z,99.38
2018-12-26T07:40:34.169Z,99.44
2018-12-26T07:41:34.175Z,99.02
2018-12-26T07:42:34.148Z,99.13
2018-12-26T07:43:34.135Z,99.33
2018-12-26T07:44:34.129Z,99.02
2018-12-26T07:45:34.112Z,99.13
2018-12-26T07:46:34.132Z,98.92
2018-12-26T07:47:34.091Z,99.23
2018-12-26T07:48:34.084Z,99.02
2018-12-26T07:49:34.071Z,99.27
2018-12-26T07:50:34.061Z,99.23
2018-12-26T07:51:34.052Z,99.23
2018-12-26T07:52:34.071Z,99.44
2018-12-26T07:53:34.031Z,99.23
2018-12-26T07:54:34.018Z,99.23
2018-12-26T07:55:34.005Z,99.33
2018-12-26T07:56:33.997Z,99.33
2018-12-26T07:57:33.985Z,99.13
2018-12-26T07:58:33.992Z,99.23
2018-12-26T07:59:37.664Z,99.23
2018-12-26T08:00:33.954Z,99.23
2018-12-26T08:01:33.943Z,99.33
2018-12-26T08:02:33.932Z,99.33
2018-12-26T08:03:33.937Z,99.02
2018-12-26T08:04:33.911Z,99.33
2018-12-26T08:05:33.899Z,99.02
2018-12-26T08:06:33.890Z,99.13
2018-12-26T08:07:33.884Z,99.17
2018-12-26T08:08:33.884Z,99.33
2018-12-26T08:09:33.874Z,99.65
2018-12-26T08:10:33.861Z,99.33
2018-12-26T08:11:33.835Z,99.85
2018-12-26T08:12:33.824Z,99.54
2018-12-26T08:13:33.816Z,99.65
2018-12-26T08:14:33.806Z,99.65
2018-12-26T08:15:33.810Z,99.65
2018-12-26T08:16:33.783Z,99.44
2018-12-26T08:17:33.775Z,99.44
2018-12-26T08:18:33.780Z,99.54
2018-12-26T08:19:33.752Z,99.75
2018-12-26T08:20:33.756Z,99.44
2018-12-26T08:21:33.753Z,99.54
2018-12-26T08:22:33.721Z,99.65
2018-12-26T08:23:33.709Z,99.18
2018-12-26T08:24:33.699Z,99.60
2018-12-26T08:25:33.685Z,99.60
2018-12-26T08:26:33.673Z,99.18
2018-12-26T08:27:33.675Z,99.29
2018-12-26T08:28:33.655Z,99.29
2018-12-26T08:29:33.644Z,99.50
2018-12-26T08:30:33.635Z,99.50
2018-12-26T08:31:33.626Z,99.60
2018-12-26T08:32:33.628Z,99.60
2018-12-26T08:33:33.602Z,99.65
2018-12-26T08:34:33.589Z,99.65
2018-12-26T08:35:33.581Z,99.65
2018-12-26T08:36:33.589Z,99.65
2018-12-26T08:37:33.558Z,99.44
2018-12-26T08:38:33.549Z,99.65
2018-12-26T08:39:33.537Z,99.65
2018-12-26T08:40:33.528Z,99.65
2018-12-26T08:41:33.514Z,99.75
2018-12-26T08:42:33.527Z,99.54
2018-12-26T08:43:33.495Z,99.65
2018-12-26T08:44:33.485Z,99.65
2018-12-26T08:45:33.472Z,99.54
2018-12-26T08:46:33.464Z,99.65
2018-12-26T08:47:33.452Z,99.65
2018-12-26T08:48:33.452Z,99.23
2018-12-26T08:49:33.430Z,99.44
2018-12-26T08:50:33.511Z,99.54
2018-12-26T08:51:33.423Z,99.54
2018-12-26T08:52:33.412Z,99.33
2018-12-26T08:53:33.390Z,99.54
2018-12-26T08:54:33.385Z,99.44
2018-12-26T08:55:33.365Z,99.65
2018-12-26T08:56:33.354Z,99.33
2018-12-26T08:57:33.360Z,99.44
2018-12-26T08:58:35.278Z,99.33
2018-12-26T08:59:33.325Z,99.23
2018-12-26T09:00:33.314Z,99.33
2018-12-26T09:01:33.300Z,99.13
2018-12-26T09:02:33.311Z,99.50
2018-12-26T09:03:33.297Z,99.54
2018-12-26T09:04:33.272Z,99.29
2018-12-26T09:05:33.259Z,99.23
2018-12-26T09:06:33.248Z,99.18
2018-12-26T09:07:33.240Z,99.40
2018-12-26T09:08:33.244Z,99.23
2018-12-26T09:09:33.219Z,99.40
2018-12-26T09:10:33.209Z,99.50
2018-12-26T09:11:33.195Z,99.54
2018-12-26T09:12:33.186Z,99.18
2018-12-26T09:13:33.291Z,99.50
2018-12-26T09:14:33.180Z,99.50
2018-12-26T09:15:33.155Z,99.40
2018-12-26T09:16:33.145Z,99.40
2018-12-26T09:17:33.136Z,99.50
2018-12-26T09:18:33.121Z,99.50
2018-12-26T09:19:33.133Z,99.18
2018-12-26T09:20:33.100Z,99.50
2018-12-26T09:21:33.088Z,99.40
2018-12-26T09:22:33.079Z,99.18
2018-12-26T09:23:33.068Z,99.50
2018-12-26T09:24:33.059Z,99.40
2018-12-26T09:25:33.059Z,99.50
2018-12-26T09:26:33.036Z,99.40
2018-12-26T09:27:33.030Z,99.18
2018-12-26T09:28:33.015Z,99.40
2018-12-26T09:29:33.020Z,99.50
2018-12-26T09:30:33.008Z,99.50
2018-12-26T09:31:32.983Z,99.50
2018-12-26T09:32:32.970Z,99.50
2018-12-26T09:33:32.962Z,99.50
2018-12-26T09:34:32.947Z,99.50
2018-12-26T09:35:32.959Z,99.29
2018-12-26T09:36:32.931Z,99.18
2018-12-26T09:37:32.919Z,99.50
2018-12-26T09:38:32.906Z,99.29
2018-12-26T09:39:32.895Z,99.29
2018-12-26T09:40:32.885Z,99.50
2018-12-26T09:41:32.888Z,99.18
2018-12-26T09:42:32.864Z,99.40
2018-12-26T09:43:32.855Z,99.40
2018-12-26T09:44:32.842Z,99.29
2018-12-26T09:45:32.834Z,99.50
2018-12-26T09:46:32.841Z,99.40
2018-12-26T09:47:32.811Z,99.18
2018-12-26T09:48:32.800Z,99.40
2018-12-26T09:49:32.787Z,99.50
2018-12-26T09:50:32.781Z,99.18
2018-12-26T09:51:32.820Z,99.71
2018-12-26T09:52:32.760Z,99.45
2018-12-26T09:53:32.745Z,99.40
2018-12-26T09:54:32.739Z,99.40
2018-12-26T09:55:32.724Z,99.29
2018-12-26T09:56:32.714Z,99.29
2018-12-26T09:57:32.730Z,99.29
2018-12-26T09:58:32.695Z,99.24
2018-12-26T09:59:32.681Z,99.24
2018-12-26T10:00:32.669Z,99.35
2018-12-26T10:01:32.661Z,99.24
2018-12-26T10:02:32.652Z,99.45
2018-12-26T10:03:32.683Z,99.40
2018-12-26T10:04:32.627Z,99.35
2018-12-26T10:05:32.619Z,99.14
2018-12-26T10:06:32.609Z,99.45
2018-12-26T10:07:32.597Z,99.35
2018-12-26T10:08:32.603Z,99.40
2018-12-26T10:09:32.576Z,99.60
2018-12-26T10:10:32.564Z,99.40
2018-12-26T10:11:32.553Z,99.40
2018-12-26T10:12:32.542Z,99.55
2018-12-26T10:13:32.557Z,99.35
2018-12-26T10:14:32.522Z,99.45
2018-12-26T10:15:32.511Z,99.45
2018-12-26T10:16:32.500Z,99.50
2018-12-26T10:17:32.491Z,99.35
2018-12-26T10:18:32.514Z,99.45
2018-12-26T10:19:32.468Z,99.35
2018-12-26T10:20:32.461Z,99.14
2018-12-26T10:21:32.448Z,99.35
2018-12-26T10:22:32.436Z,99.35
2018-12-26T10:23:32.428Z,99.60
2018-12-26T10:24:32.434Z,99.55
2018-12-26T10:25:32.438Z,99.24
2018-12-26T10:26:32.392Z,99.66
2018-12-26T10:27:32.386Z,99.55
2018-12-26T10:28:32.373Z,99.55
2018-12-26T10:29:32.360Z,99.55
2018-12-26T10:30:32.350Z,99.35
2018-12-26T10:31:32.358Z,99.66
2018-12-26T10:32:32.332Z,99.76
2018-12-26T10:33:32.319Z,99.99
2018-12-26T10:34:32.309Z,99.35
2018-12-26T10:35:32.313Z,99.35
2018-12-26T10:36:32.287Z,99.98
2018-12-26T10:37:32.277Z,99.98
2018-12-26T10:38:32.265Z,99.98
2018-12-26T10:39:32.256Z,99.45
2018-12-26T10:40:32.256Z,99.98
2018-12-26T10:41:32.233Z,99.35
2018-12-26T10:42:32.226Z,99.66
2018-12-26T10:43:32.212Z,99.35
2018-12-26T10:44:32.201Z,99.35
2018-12-26T10:45:32.211Z,99.35
2018-12-26T10:46:32.184Z,99.98
2018-12-26T10:47:32.187Z,99.35
2018-12-26T10:48:32.161Z,99.45
2018-12-26T10:49:32.147Z,99.99
2018-12-26T10:50:33.150Z,99.98
2018-12-26T10:51:32.126Z,99.98
2018-12-26T10:52:32.116Z,99.99
2018-12-26T10:53:32.108Z,99.98
2018-12-26T10:54:32.098Z,99.45
2018-12-26T10:55:32.083Z,99.99
2018-12-26T10:56:32.088Z,99.98
2018-12-26T10:57:32.063Z,99.66
2018-12-26T10:58:32.053Z,99.99
2018-12-26T10:59:32.065Z,99.99
2018-12-26T11:00:32.033Z,99.66
2018-12-26T11:01:32.023Z,99.76
2018-12-26T11:02:32.011Z,99.76
2018-12-26T11:03:31.997Z,99.76
2018-12-26T11:04:31.990Z,99.66
2018-12-26T11:05:32.016Z,99.76
2018-12-26T11:06:31.967Z,99.76
2018-12-26T11:07:31.956Z,99.66
2018-12-26T11:08:31.947Z,99.76
2018-12-26T11:09:31.938Z,99.55
2018-12-26T11:10:31.926Z,99.76
2018-12-26T11:11:31.933Z,99.66
2018-12-26T11:12:31.902Z,99.87
2018-12-26T11:13:31.895Z,99.66
2018-12-26T11:14:31.907Z,99.55
2018-12-26T11:15:31.873Z,99.76
2018-12-26T11:16:31.860Z,99.76
2018-12-26T11:17:31.851Z,99.35
2018-12-26T11:18:31.839Z,99.66
2018-12-26T11:19:31.828Z,99.76
2018-12-26T11:20:31.849Z,99.55
2018-12-26T11:21:31.808Z,99.66
2018-12-26T11:22:31.794Z,99.55
2018-12-26T11:23:31.787Z,99.35
2018-12-26T11:24:31.774Z,99.30
2018-12-26T11:25:31.763Z,99.55
2018-12-26T11:26:31.772Z,99.66
2018-12-26T11:27:31.743Z,99.35
2018-12-26T11:28:31.735Z,99.35
2018-12-26T11:29:31.724Z,99.55
2018-12-26T11:30:31.710Z,99.66
2018-12-26T11:31:31.701Z,99.87
2018-12-26T11:32:31.750Z,99.98
2018-12-26T11:33:31.681Z,99.66
2018-12-26T11:34:31.668Z,99.55
2018-12-26T11:35:31.659Z,99.99
2018-12-26T11:36:31.645Z,99.99
2018-12-26T11:37:31.635Z,99.87
2018-12-26T11:38:31.648Z,99.66
2018-12-26T11:39:31.613Z,99.76
2018-12-26T11:40:31.606Z,99.76
2018-12-26T11:41:31.596Z,99.76
2018-12-26T11:42:31.582Z,99.98
2018-12-26T11:43:31.573Z,99.93
2018-12-26T11:44:31.576Z,99.99
2018-12-26T11:45:31.568Z,99.99
2018-12-26T11:46:31.537Z,99.45
2018-12-26T11:47:31.549Z,99.66
2018-12-26T11:48:31.517Z,99.98
2018-12-26T11:49:31.508Z,99.98
2018-12-26T11:50:31.498Z,99.99
2018-12-26T11:51:31.485Z,99.99
2018-12-26T11:52:31.475Z,99.99
2018-12-26T11:53:31.480Z,99.98
2018-12-26T11:54:31.454Z,99.76
2018-12-26T11:55:31.443Z,99.99
2018-12-26T11:56:31.434Z,99.99
2018-12-26T11:57:31.425Z,99.99
2018-12-26T11:58:31.428Z,99.99
2018-12-26T11:59:31.401Z,99.99
2018-12-26T12:00:31.392Z,99.99
2018-12-26T12:01:31.380Z,99.99
2018-12-26T12:02:31.368Z,99.99
2018-12-26T12:03:31.375Z,99.93
2018-12-26T12:04:31.345Z,99.41
2018-12-26T12:05:31.339Z,99.76
2018-12-26T12:06:31.328Z,99.72
2018-12-26T12:07:31.317Z,99.72
2018-12-26T12:08:31.434Z,99.62
2018-12-26T12:09:31.309Z,99.62
2018-12-26T12:10:31.289Z,99.82
2018-12-26T12:11:31.271Z,99.72
2018-12-26T12:12:31.261Z,99.51
2018-12-26T12:13:31.253Z,99.51
2018-12-26T12:14:31.254Z,99.62
2018-12-26T12:15:31.267Z,99.72
2018-12-26T12:16:31.217Z,99.99
2018-12-26T12:17:31.210Z,99.82
2018-12-26T12:18:31.199Z,99.72
2018-12-26T12:19:31.188Z,99.99
2018-12-26T12:20:31.178Z,99.72
2018-12-26T12:21:31.191Z,99.99
2018-12-26T12:22:31.153Z,99.72
2018-12-26T12:23:31.146Z,99.93
2018-12-26T12:24:31.136Z,99.99
2018-12-26T12:25:31.121Z,99.99
2018-12-26T12:26:31.115Z,99.99
2018-12-26T12:27:31.115Z,99.99
2018-12-26T12:28:31.090Z,99.93
2018-12-26T12:29:35.961Z,99.93
2018-12-26T12:30:32.069Z,99.99
2018-12-26T12:31:31.086Z,99.99
2018-12-26T12:32:31.048Z,99.99
2018-12-26T12:33:31.040Z,99.99
2018-12-26T12:34:31.029Z,99.99
2018-12-26T12:35:31.018Z,99.99
2018-12-26T12:36:31.006Z,99.99
2018-12-26T12:37:31.031Z,99.99
2018-12-26T12:38:30.986Z,99.99
2018-12-26T12:39:30.975Z,99.99
2018-12-26T12:40:30.963Z,99.99
2018-12-26T12:41:30.951Z,99.82
2018-12-26T12:42:30.940Z,99.99
2018-12-26T12:43:30.943Z,99.99
2018-12-26T12:44:30.922Z,99.99
2018-12-26T12:45:30.909Z,99.99
2018-12-26T12:46:30.900Z,99.99
2018-12-26T12:47:30.891Z,99.99
2018-12-26T12:48:30.892Z,99.99
2018-12-26T12:49:30.865Z,99.99
2018-12-26T12:50:30.857Z,99.99
2018-12-26T12:51:30.845Z,99.99
2018-12-26T12:52:30.839Z,99.99